createdAt,value
2022-12-29T00:00:14.527Z,96.83
2022-12-29T00:02:41.116Z,98.67
2022-12-29T00:05:08.564Z,97.20
2022-12-29T00:07:35.410Z,96.72
2022-12-29T00:10:01.888Z,95.86
2022-12-29T00:12:28.680Z,97.36
2022-12-29T00:14:55.213Z,96.07
2022-12-29T00:17:21.837Z,95.59
2022-12-29T00:19:48.404Z,95.79
2022-12-29T00:22:15.501Z,95.94
2022-12-29T00:24:42.117Z,95.97
2022-12-29T00:27:08.636Z,98.92
2022-12-29T00:29:35.085Z,99.70
2022-12-29T00:32:01.616Z,98.08
2022-12-29T00:34:28.156Z,97.64
2022-12-29T00:36:54.615Z,97.41
2022-12-29T00:39:21.175Z,96.49
2022-12-29T00:41:49.135Z,95.08
2022-12-29T00:44:15.759Z,95.01
2022-12-29T00:46:43.915Z,95.06
2022-12-29T00:49:13.240Z,96.96
2022-12-29T00:51:40.569Z,99.87
2022-12-29T00:54:07.265Z,97.61
2022-12-29T00:56:34.020Z,95.82
2022-12-29T00:59:02.392Z,95.19
2022-12-29T01:01:29.370Z,95.18
2022-12-29T01:04:01.961Z,95.08
2022-12-29T01:06:30.575Z,94.90
2022-12-29T01:08:57.124Z,94.92
2022-12-29T01:11:23.568Z,95.18
2022-12-29T01:13:50.124Z,94.90
2022-12-29T01:16:16.705Z,94.86
2022-12-29T01:18:44.910Z,95.26
2022-12-29T01:21:11.318Z,95.29
2022-12-29T01:23:37.818Z,95.09
2022-12-29T01:26:11.920Z,94.96
2022-12-29T01:28:38.587Z,95.35
2022-12-29T01:31:05.241Z,95.01
2022-12-29T01:33:31.912Z,94.78
2022-12-29T01:36:07.481Z,94.70
2022-12-29T01:38:35.703Z,95.22
2022-12-29T01:41:02.660Z,95.38
2022-12-29T01:43:56.705Z,96.11
2022-12-29T01:46:38.043Z,98.37
2022-12-29T01:49:16.345Z,97.18
2022-12-29T01:52:00.378Z,96.55
2022-12-29T01:54:35.945Z,96.33
2022-12-29T01:57:06.080Z,95.91
2022-12-29T01:59:37.785Z,96.05
2022-12-29T02:02:05.542Z,97.96
2022-12-29T02:04:34.047Z,97.58
2022-12-29T02:07:04.838Z,97.60
2022-12-29T02:09:31.968Z,99.95
2022-12-29T02:12:00.484Z,99.72
2022-12-29T02:14:26.988Z,99.55
2022-12-29T02:17:26.299Z,99.69
2022-12-29T02:20:08.126Z,98.49
2022-12-29T02:23:14.436Z,97.72
2022-12-29T02:25:56.100Z,97.44
2022-12-29T02:28:54.411Z,97.66
2022-12-29T02:31:29.777Z,98.29
2022-12-29T02:34:36.483Z,97.88
2022-12-29T02:37:25.772Z,98.53
2022-12-29T02:40:04.180Z,98.90
2022-12-29T02:42:33.615Z,98.43
2022-12-29T02:45:27.502Z,98.31
2022-12-29T02:48:17.661Z,97.62
2022-12-29T02:50:58.654Z,97.87
2022-12-29T02:53:27.539Z,97.59
2022-12-29T02:55:54.112Z,97.78
2022-12-29T02:58:23.699Z,97.48
2022-12-29T03:01:09.907Z,97.76
2022-12-29T03:04:01.014Z,98.34
2022-12-29T03:06:52.128Z,98.88
2022-12-29T03:09:40.075Z,98.84
2022-12-29T03:12:31.447Z,99.18
2022-12-29T03:15:00.909Z,100.00
2022-12-29T03:17:42.014Z,100.00
2022-12-29T03:20:11.281Z,100.00
2022-12-29T03:22:45.869Z,99.93
2022-12-29T03:25:18.820Z,99.05
2022-12-29T03:27:50.271Z,98.52
2022-12-29T03:30:17.398Z,98.40
2022-12-29T03:32:48.255Z,98.40
2022-12-29T03:35:18.311Z,97.98
2022-12-29T03:37:53.537Z,97.95
2022-12-29T03:40:23.664Z,97.56
2022-12-29T03:42:51.221Z,97.86
2022-12-29T03:45:17.871Z,97.76
2022-12-29T03:47:45.117Z,97.54
2022-12-29T03:50:13.907Z,97.33
2022-12-29T03:52:41.041Z,97.62
2022-12-29T03:55:08.204Z,97.55
2022-12-29T03:57:34.870Z,97.55
2022-12-29T04:00:01.399Z,97.17
2022-12-29T04:02:27.987Z,97.14
2022-12-29T04:04:54.564Z,97.46
2022-12-29T04:07:20.984Z,97.83
2022-12-29T04:09:47.563Z,97.68
2022-12-29T04:12:14.216Z,97.69
2022-12-29T04:14:41.352Z,97.71
2022-12-29T04:17:07.845Z,97.80
2022-12-29T04:19:34.341Z,97.82
2022-12-29T04:22:00.790Z,97.96
2022-12-29T04:24:27.281Z,98.37
2022-12-29T04:26:53.824Z,98.07
2022-12-29T04:29:20.383Z,97.81
2022-12-29T04:31:47.029Z,97.72
2022-12-29T04:34:13.720Z,97.76
2022-12-29T04:36:40.845Z,97.58
2022-12-29T04:39:08.313Z,97.60
2022-12-29T04:41:34.849Z,97.49
2022-12-29T04:44:01.287Z,97.09
2022-12-29T04:46:27.973Z,97.01
2022-12-29T04:48:54.787Z,97.06
2022-12-29T04:51:21.363Z,96.78
2022-12-29T04:53:47.878Z,96.97
2022-12-29T04:56:14.412Z,97.84
2022-12-29T04:58:41.148Z,97.95
2022-12-29T05:01:07.675Z,97.64
2022-12-29T05:03:34.125Z,97.57
2022-12-29T05:06:00.755Z,97.28
2022-12-29T05:08:28.491Z,97.21
2022-12-29T05:10:55.384Z,97.42
2022-12-29T05:13:21.997Z,97.68
2022-12-29T05:15:51.834Z,97.51
2022-12-29T05:18:19.230Z,97.47
2022-12-29T05:20:46.972Z,97.49
2022-12-29T05:23:14.278Z,97.82
2022-12-29T05:25:40.833Z,97.47
2022-12-29T05:28:07.244Z,97.33
2022-12-29T05:30:34.221Z,97.19
2022-12-29T05:33:00.692Z,97.53
2022-12-29T05:35:27.190Z,97.56
2022-12-29T05:37:53.669Z,97.83
2022-12-29T05:40:20.221Z,97.46
2022-12-29T05:42:46.962Z,97.35
2022-12-29T05:45:13.489Z,98.61
2022-12-29T05:47:41.052Z,100.00
2022-12-29T05:50:08.168Z,99.81
2022-12-29T05:52:34.786Z,98.91
2022-12-29T05:55:01.239Z,98.24
2022-12-29T05:57:27.731Z,97.80
2022-12-29T05:59:54.276Z,97.77
2022-12-29T06:02:20.795Z,97.69
2022-12-29T06:04:47.381Z,97.09
2022-12-29T06:07:13.986Z,97.10
2022-12-29T06:09:40.435Z,96.98
2022-12-29T06:12:07.174Z,97.31
2022-12-29T06:14:33.819Z,96.33
2022-12-29T06:17:00.655Z,96.34
2022-12-29T06:19:27.090Z,95.68
2022-12-29T06:21:53.537Z,95.20
2022-12-29T06:24:20.597Z,94.48
2022-12-29T06:26:47.090Z,94.29
2022-12-29T06:29:13.774Z,94.86
2022-12-29T06:31:40.819Z,94.71
2022-12-29T06:34:08.608Z,95.17
2022-12-29T06:36:35.861Z,94.88
2022-12-29T06:39:02.286Z,94.59
2022-12-29T06:41:32.439Z,94.85
2022-12-29T06:43:59.214Z,95.10
2022-12-29T06:46:25.736Z,94.99
2022-12-29T06:48:52.341Z,94.61
2022-12-29T06:51:18.793Z,94.72
2022-12-29T06:53:45.177Z,95.01
2022-12-29T06:56:11.728Z,95.36
2022-12-29T06:58:38.240Z,95.12
2022-12-29T07:01:04.971Z,94.88
2022-12-29T07:03:31.602Z,94.70
2022-12-29T07:05:58.051Z,94.97
2022-12-29T07:08:25.486Z,95.31
2022-12-29T07:10:51.914Z,95.46
2022-12-29T07:13:18.325Z,95.67
2022-12-29T07:15:44.901Z,95.54
2022-12-29T07:18:11.300Z,95.73
2022-12-29T07:20:37.806Z,95.89
2022-12-29T07:23:04.312Z,95.86
2022-12-29T07:25:30.726Z,95.93
2022-12-29T07:27:57.167Z,95.83
2022-12-29T07:30:23.602Z,95.99
2022-12-29T07:32:50.148Z,96.56
2022-12-29T07:35:16.946Z,97.57
2022-12-29T07:37:44.373Z,97.53
2022-12-29T07:40:11.831Z,97.12
2022-12-29T07:42:38.291Z,97.13
2022-12-29T07:45:05.728Z,97.30
2022-12-29T07:47:32.267Z,97.31
2022-12-29T07:49:58.813Z,97.37
2022-12-29T07:52:25.551Z,97.58
2022-12-29T07:54:52.606Z,98.84
2022-12-29T07:57:19.082Z,98.22
2022-12-29T07:59:45.580Z,97.86
2022-12-29T08:02:12.433Z,98.00
2022-12-29T08:04:39.372Z,98.10
2022-12-29T08:07:05.810Z,97.92
2022-12-29T08:09:32.194Z,97.70
2022-12-29T08:11:58.796Z,97.79
2022-12-29T08:14:25.218Z,97.75
2022-12-29T08:16:51.630Z,97.89
2022-12-29T08:19:18.118Z,97.72
2022-12-29T08:21:44.571Z,97.91
2022-12-29T08:24:11.312Z,97.97
2022-12-29T08:26:37.945Z,98.03
2022-12-29T08:29:04.409Z,97.64
2022-12-29T08:31:30.978Z,97.87
2022-12-29T08:33:57.518Z,98.27
2022-12-29T08:36:24.031Z,98.17
2022-12-29T08:38:50.513Z,98.05
2022-12-29T08:41:17.201Z,97.54
2022-12-29T08:43:47.464Z,97.61
2022-12-29T08:46:14.268Z,98.40
2022-12-29T08:48:40.999Z,99.19
2022-12-29T08:51:09.555Z,100.00
2022-12-29T08:53:36.200Z,100.00
2022-12-29T08:56:05.438Z,100.00
2022-12-29T08:58:33.190Z,100.00
2022-12-29T09:01:00.248Z,100.00
2022-12-29T09:03:54.953Z,99.36
2022-12-29T09:06:14.651Z,99.73
2022-12-29T09:08:41.175Z,97.72
2022-12-29T09:11:09.757Z,93.59
2022-12-29T09:13:36.303Z,91.25
2022-12-29T09:16:03.728Z,88.41
2022-12-29T09:18:30.789Z,85.41
2022-12-29T09:21:02.372Z,84.23
2022-12-29T09:23:29.319Z,83.43
2022-12-29T09:25:55.748Z,80.29
2022-12-29T09:28:23.119Z,80.18
2022-12-29T09:30:51.320Z,80.86
2022-12-29T09:33:18.541Z,79.68
2022-12-29T09:35:56.642Z,79.22
2022-12-29T09:38:24.749Z,81.10
2022-12-29T09:40:53.639Z,82.02
2022-12-29T09:43:42.675Z,81.06
2022-12-29T09:46:17.900Z,78.73
2022-12-29T09:48:55.146Z,79.47
2022-12-29T09:51:24.602Z,79.31
2022-12-29T09:54:01.748Z,78.47
2022-12-29T09:56:28.926Z,77.11
2022-12-29T09:59:02.015Z,75.65
2022-12-29T10:01:59.661Z,75.49
2022-12-29T10:04:30.000Z,73.12
2022-12-29T10:07:29.096Z,73.48
2022-12-29T10:10:21.547Z,67.51
2022-12-29T10:13:22.927Z,68.34
2022-12-29T10:16:08.146Z,69.27
2022-12-29T10:19:00.600Z,68.56
2022-12-29T10:21:31.385Z,69.15
2022-12-29T10:24:01.109Z,67.39
2022-12-29T10:26:30.994Z,68.62
2022-12-29T10:29:04.454Z,69.37
2022-12-29T10:31:44.379Z,69.34
2022-12-29T10:34:24.668Z,66.06
2022-12-29T10:36:58.279Z,64.87
2022-12-29T10:39:44.370Z,63.75
2022-12-29T10:42:19.167Z,62.88
2022-12-29T10:44:45.830Z,62.11
2022-12-29T10:47:22.001Z,63.26
2022-12-29T10:49:49.403Z,63.14
2022-12-29T10:52:19.708Z,63.14
2022-12-29T10:55:04.481Z,62.66
2022-12-29T10:57:40.172Z,61.31
2022-12-29T11:00:22.065Z,61.96
2022-12-29T11:03:07.359Z,60.43
2022-12-29T11:05:45.887Z,60.78
2022-12-29T11:08:17.773Z,60.28
2022-12-29T11:10:46.158Z,60.26
2022-12-29T11:13:12.586Z,60.73
2022-12-29T11:15:47.429Z,60.25
2022-12-29T11:18:27.096Z,60.77
2022-12-29T11:20:57.507Z,59.91
2022-12-29T11:23:31.857Z,61.16
2022-12-29T11:26:18.899Z,61.50
2022-12-29T11:29:06.793Z,60.64
2022-12-29T11:31:41.881Z,60.73
2022-12-29T11:34:09.172Z,59.19
2022-12-29T11:36:37.213Z,59.70
2022-12-29T11:39:07.678Z,58.94
2022-12-29T11:41:37.048Z,57.98
2022-12-29T11:44:06.832Z,57.72
2022-12-29T11:46:38.185Z,56.69
2022-12-29T11:49:05.628Z,57.90
2022-12-29T11:51:44.677Z,55.79
2022-12-29T11:54:20.258Z,55.63
2022-12-29T11:56:47.331Z,56.08
2022-12-29T11:59:28.772Z,55.83
2022-12-29T12:01:56.397Z,57.43
2022-12-29T12:04:35.129Z,56.76
2022-12-29T12:07:18.355Z,56.57
2022-12-29T12:09:51.579Z,57.05
2022-12-29T12:12:44.180Z,57.47
2022-12-29T12:15:20.430Z,57.35
2022-12-29T12:18:01.185Z,57.52
2022-12-29T12:20:44.084Z,57.64
2022-12-29T12:23:19.458Z,58.23
2022-12-29T12:25:52.388Z,57.54
2022-12-29T12:28:30.533Z,57.26
2022-12-29T12:31:02.831Z,58.30
2022-12-29T12:33:36.345Z,58.23
2022-12-29T12:36:33.217Z,58.45
2022-12-29T12:39:07.325Z,57.97
2022-12-29T12:41:55.781Z,58.40
2022-12-29T12:44:34.333Z,58.40
2022-12-29T12:47:34.394Z,58.77
2022-12-29T12:50:16.735Z,58.87
2022-12-29T12:53:30.908Z,58.15
2022-12-29T12:56:12.538Z,57.85
2022-12-29T12:58:49.323Z,58.33
2022-12-29T13:01:25.038Z,58.07
2022-12-29T13:04:22.788Z,57.97
2022-12-29T13:07:08.727Z,58.02
2022-12-29T13:10:23.259Z,58.59
2022-12-29T13:13:22.254Z,58.62
2022-12-29T13:16:14.651Z,58.67
2022-12-29T13:19:00.211Z,58.75
2022-12-29T13:22:03.887Z,58.72
2022-12-29T13:25:05.372Z,58.62
2022-12-29T13:27:57.304Z,58.90
2022-12-29T13:30:34.577Z,58.91
2022-12-29T13:33:21.322Z,59.23
2022-12-29T13:36:06.997Z,59.74
2022-12-29T13:38:41.263Z,59.73
2022-12-29T13:41:15.552Z,59.99
2022-12-29T13:43:45.535Z,60.05
2022-12-29T13:46:16.825Z,59.90
2022-12-29T13:48:57.687Z,59.82
2022-12-29T13:51:28.123Z,59.92
2022-12-29T13:54:15.903Z,60.09
2022-12-29T13:57:00.799Z,60.09
2022-12-29T13:59:42.227Z,60.16
2022-12-29T14:02:18.088Z,60.35
2022-12-29T14:05:25.286Z,60.75
2022-12-29T14:08:01.155Z,60.94
2022-12-29T14:10:33.429Z,60.99
2022-12-29T14:13:07.586Z,61.11
2022-12-29T14:15:34.504Z,61.28
2022-12-29T14:18:05.804Z,61.43
2022-12-29T14:20:32.938Z,61.67
2022-12-29T14:23:11.596Z,61.96
2022-12-29T14:26:06.960Z,62.11
2022-12-29T14:28:48.010Z,62.46
2022-12-29T14:31:17.579Z,62.57
2022-12-29T14:34:12.001Z,62.71
2022-12-29T14:36:42.525Z,62.81
2022-12-29T14:39:45.546Z,63.01
2022-12-29T14:42:14.651Z,63.10
2022-12-29T14:45:13.448Z,63.31
2022-12-29T14:47:48.270Z,63.69
2022-12-29T14:50:22.090Z,63.75
2022-12-29T14:52:52.057Z,63.79
2022-12-29T14:55:32.654Z,64.02
2022-12-29T14:58:02.959Z,64.08
2022-12-29T15:00:35.834Z,63.99
2022-12-29T15:03:07.852Z,64.20
2022-12-29T15:05:50.490Z,64.28
2022-12-29T15:08:23.837Z,64.45
2022-12-29T15:10:54.629Z,64.51
2022-12-29T15:13:33.707Z,64.70
2022-12-29T15:16:00.319Z,64.79
2022-12-29T15:18:30.630Z,65.09
2022-12-29T15:21:01.053Z,65.17
2022-12-29T15:23:29.234Z,65.22
2022-12-29T15:26:05.921Z,65.32
2022-12-29T15:28:41.892Z,65.48
2022-12-29T15:31:17.637Z,65.66
2022-12-29T15:33:47.869Z,65.80
2022-12-29T15:36:24.231Z,65.73
2022-12-29T15:38:50.957Z,66.22
2022-12-29T15:41:35.722Z,66.42
2022-12-29T15:44:24.700Z,66.64
2022-12-29T15:46:51.237Z,66.72
2022-12-29T15:49:17.903Z,66.87
2022-12-29T15:51:44.942Z,66.60
2022-12-29T15:54:19.977Z,66.69
2022-12-29T15:56:47.335Z,66.56
2022-12-29T15:59:46.966Z,66.41
2022-12-29T16:02:13.627Z,66.73
2022-12-29T16:05:01.659Z,66.94
2022-12-29T16:07:35.807Z,67.28
2022-12-29T16:10:06.523Z,67.62
2022-12-29T16:12:36.565Z,67.62
2022-12-29T16:15:13.370Z,67.52
2022-12-29T16:17:49.782Z,67.72
2022-12-29T16:20:20.726Z,68.13
2022-12-29T16:22:51.296Z,68.40
2022-12-29T16:25:29.248Z,68.35
2022-12-29T16:27:56.259Z,68.29
2022-12-29T16:30:33.152Z,68.50
2022-12-29T16:33:03.426Z,68.67
2022-12-29T16:35:45.485Z,68.91
2022-12-29T16:38:17.594Z,68.86
2022-12-29T16:40:56.982Z,69.05
2022-12-29T16:43:25.263Z,69.55
2022-12-29T16:45:51.682Z,69.68
2022-12-29T16:48:24.521Z,69.33
2022-12-29T16:50:51.290Z,69.45
2022-12-29T16:53:39.314Z,69.35
2022-12-29T16:56:18.228Z,69.52
2022-12-29T16:58:49.618Z,69.43
2022-12-29T17:01:16.199Z,69.76
2022-12-29T17:03:47.550Z,69.85
2022-12-29T17:06:18.341Z,70.07
2022-12-29T17:08:46.034Z,70.52
2022-12-29T17:11:29.559Z,70.18
2022-12-29T17:13:56.034Z,70.19
2022-12-29T17:16:22.468Z,70.08
2022-12-29T17:18:49.065Z,70.32
2022-12-29T17:21:15.453Z,70.37
2022-12-29T17:23:41.915Z,70.50
2022-12-29T17:26:09.784Z,70.52
2022-12-29T17:28:36.176Z,70.27
2022-12-29T17:31:05.924Z,70.49
2022-12-29T17:33:39.891Z,70.50
2022-12-29T17:36:06.834Z,71.05
2022-12-29T17:38:36.277Z,71.14
2022-12-29T17:41:03.019Z,71.21
2022-12-29T17:43:36.381Z,71.39
2022-12-29T17:46:07.228Z,71.44
2022-12-29T17:48:33.966Z,71.25
2022-12-29T17:51:00.718Z,71.50
2022-12-29T17:53:29.879Z,71.47
2022-12-29T17:55:56.305Z,71.65
2022-12-29T17:58:28.476Z,71.92
2022-12-29T18:00:58.396Z,72.60
2022-12-29T18:03:28.592Z,72.65
2022-12-29T18:05:55.453Z,72.82
2022-12-29T18:08:22.143Z,73.03
2022-12-29T18:10:48.701Z,72.96
2022-12-29T18:13:22.889Z,73.31
2022-12-29T18:15:49.699Z,73.54
2022-12-29T18:18:19.205Z,73.42
2022-12-29T18:20:47.170Z,73.57
2022-12-29T18:23:21.388Z,73.15
2022-12-29T18:26:13.760Z,73.58
2022-12-29T18:28:40.204Z,74.06
2022-12-29T18:31:16.913Z,74.16
2022-12-29T18:33:43.370Z,74.96
2022-12-29T18:36:12.700Z,74.56
2022-12-29T18:38:39.438Z,74.67
2022-12-29T18:41:13.355Z,74.73
2022-12-29T18:43:39.884Z,74.97
2022-12-29T18:46:06.440Z,75.18
2022-12-29T18:48:33.103Z,75.24
2022-12-29T18:50:59.533Z,75.47
2022-12-29T18:53:26.032Z,75.39
2022-12-29T18:55:53.912Z,75.57
2022-12-29T18:58:20.750Z,76.04
2022-12-29T19:00:47.560Z,76.05
2022-12-29T19:03:16.948Z,76.47
2022-12-29T19:05:45.756Z,76.87
2022-12-29T19:08:12.965Z,77.11
2022-12-29T19:10:40.430Z,77.65
2022-12-29T19:13:06.934Z,77.43
2022-12-29T19:15:35.836Z,77.74
2022-12-29T19:18:42.365Z,77.74
2022-12-29T19:20:54.135Z,78.39
2022-12-29T19:23:23.229Z,79.25
2022-12-29T19:25:50.465Z,79.86
2022-12-29T19:28:22.968Z,78.89
2022-12-29T19:30:52.459Z,78.94
2022-12-29T19:33:22.103Z,79.24
2022-12-29T19:35:50.182Z,79.68
2022-12-29T19:38:17.512Z,79.82
2022-12-29T19:40:46.370Z,80.03
2022-12-29T19:43:13.953Z,79.79
2022-12-29T19:45:41.247Z,79.72
2022-12-29T19:48:12.993Z,80.19
2022-12-29T19:50:39.770Z,79.90
2022-12-29T19:53:06.223Z,79.88
2022-12-29T19:55:32.865Z,80.00
2022-12-29T19:57:59.411Z,80.02
2022-12-29T20:00:25.927Z,80.36
2022-12-29T20:02:52.781Z,79.83
2022-12-29T20:05:19.619Z,81.48
2022-12-29T20:07:46.073Z,81.46
2022-12-29T20:10:12.902Z,81.78
2022-12-29T20:12:39.393Z,81.71
2022-12-29T20:15:10.582Z,81.55
2022-12-29T20:18:12.064Z,81.70
2022-12-29T20:20:23.555Z,81.83
2022-12-29T20:22:50.005Z,82.38
2022-12-29T20:25:44.130Z,83.62
2022-12-29T20:28:03.569Z,84.27
2022-12-29T20:30:30.091Z,84.51
2022-12-29T20:32:56.636Z,85.88
2022-12-29T20:35:23.375Z,85.08
2022-12-29T20:37:49.809Z,84.34
2022-12-29T20:40:16.225Z,84.59
2022-12-29T20:42:42.792Z,84.40
2022-12-29T20:45:09.365Z,84.40
2022-12-29T20:47:35.773Z,84.23
2022-12-29T20:50:02.428Z,84.29
2022-12-29T20:52:28.872Z,84.40
2022-12-29T20:54:55.386Z,83.67
2022-12-29T20:57:21.816Z,84.36
2022-12-29T20:59:48.476Z,84.68
2022-12-29T21:02:20.866Z,84.87
2022-12-29T21:05:22.299Z,84.87
2022-12-29T21:07:34.216Z,85.01
2022-12-29T21:10:00.767Z,84.89
2022-12-29T21:12:27.715Z,85.05
2022-12-29T21:14:54.140Z,85.24
2022-12-29T21:17:20.618Z,85.10
2022-12-29T21:19:47.048Z,84.78
2022-12-29T21:22:13.448Z,85.05
2022-12-29T21:24:39.946Z,85.51
2022-12-29T21:27:06.432Z,85.85
2022-12-29T21:29:32.827Z,86.31
2022-12-29T21:32:05.576Z,86.95
2022-12-29T21:34:32.703Z,86.33
2022-12-29T21:36:59.259Z,86.95
2022-12-29T21:39:25.737Z,86.33
2022-12-29T21:41:52.227Z,86.34
2022-12-29T21:44:18.666Z,86.01
2022-12-29T21:46:45.208Z,85.76
2022-12-29T21:49:11.740Z,85.52
2022-12-29T21:51:38.192Z,85.98
2022-12-29T21:54:04.722Z,85.91
2022-12-29T21:56:31.158Z,86.14
2022-12-29T21:58:57.595Z,86.75
2022-12-29T22:01:25.786Z,86.43
2022-12-29T22:03:52.373Z,86.06
2022-12-29T22:06:18.761Z,86.36
2022-12-29T22:08:45.291Z,86.50
2022-12-29T22:11:12.188Z,86.78
2022-12-29T22:13:38.988Z,86.71
2022-12-29T22:16:11.636Z,86.19
2022-12-29T22:18:38.936Z,86.02
2022-12-29T22:21:08.006Z,85.77
2022-12-29T22:23:34.486Z,86.37
2022-12-29T22:26:05.320Z,85.85
2022-12-29T22:28:32.054Z,85.82
2022-12-29T22:30:58.578Z,86.26
2022-12-29T22:33:25.021Z,86.55
2022-12-29T22:35:51.574Z,87.24
2022-12-29T22:38:18.024Z,87.45
2022-12-29T22:40:44.547Z,87.42
2022-12-29T22:43:13.252Z,86.77
2022-12-29T22:45:41.118Z,87.85
2022-12-29T22:48:08.352Z,88.59
2022-12-29T22:50:34.736Z,89.00
2022-12-29T22:53:01.192Z,88.82
2022-12-29T22:55:27.685Z,89.07
2022-12-29T22:57:54.069Z,88.83
2022-12-29T23:00:20.665Z,89.01
2022-12-29T23:02:47.378Z,89.20
2022-12-29T23:05:14.091Z,89.22
2022-12-29T23:07:40.606Z,89.07
2022-12-29T23:10:07.630Z,89.01
2022-12-29T23:12:34.087Z,89.08
2022-12-29T23:15:00.862Z,88.75
2022-12-29T23:17:27.647Z,88.83
2022-12-29T23:19:54.137Z,89.26
2022-12-29T23:22:20.995Z,89.91
2022-12-29T23:24:47.594Z,89.68
2022-12-29T23:27:14.138Z,89.82
2022-12-29T23:29:40.680Z,90.05
2022-12-29T23:32:07.214Z,90.57
2022-12-29T23:34:33.629Z,90.51
2022-12-29T23:37:00.193Z,90.74
2022-12-29T23:39:26.600Z,90.65
2022-12-29T23:41:53.087Z,90.60
2022-12-29T23:44:19.710Z,90.52
2022-12-29T23:46:46.410Z,90.49
2022-12-29T23:49:13.317Z,91.09
2022-12-29T23:51:39.843Z,91.65
2022-12-29T23:54:06.417Z,91.70
2022-12-29T23:56:32.866Z,91.55
2022-12-29T23:58:59.515Z,91.57
